sensor_id;sensor_type;location;lat;lon;timestamp;temperature;humidity
4964;DHT22;2497;47.410;9.740;2022-08-19T00:00:09;17.10;99.90
4964;DHT22;2497;47.410;9.740;2022-08-19T00:02:38;17.10;99.90
4964;DHT22;2497;47.410;9.740;2022-08-19T00:05:06;17.20;99.90
4964;DHT22;2497;47.410;9.740;2022-08-19T00:07:34;17.20;99.90
4964;DHT22;2497;47.410;9.740;2022-08-19T00:10:02;17.20;99.90
4964;DHT22;2497;47.410;9.740;2022-08-19T00:12:29;17.30;99.90
4964;DHT22;2497;47.410;9.740;2022-08-19T00:14:56;17.30;99.90
4964;DHT22;2497;47.410;9.740;2022-08-19T00:17:24;17.30;99.90
4964;DHT22;2497;47.410;9.740;2022-08-19T00:19:53;17.30;99.90
4964;DHT22;2497;47.410;9.740;2022-08-19T00:22:20;17.30;99.90
4964;DHT22;2497;47.410;9.740;2022-08-19T00:24:48;17.30;99.90
4964;DHT22;2497;47.410;9.740;2022-08-19T00:27:15;17.20;99.90
4964;DHT22;2497;47.410;9.740;2022-08-19T00:29:43;17.20;99.90
4964;DHT22;2497;47.410;9.740;2022-08-19T00:32:10;17.20;99.90
4964;DHT22;2497;47.410;9.740;2022-08-19T00:34:37;17.20;99.90
4964;DHT22;2497;47.410;9.740;2022-08-19T00:37:06;17.30;99.90
4964;DHT22;2497;47.410;9.740;2022-08-19T00:39:33;17.30;99.90
4964;DHT22;2497;47.410;9.740;2022-08-19T00:42:01;17.30;99.90
4964;DHT22;2497;47.410;9.740;2022-08-19T00:44:29;17.30;99.90
4964;DHT22;2497;47.410;9.740;2022-08-19T00:46:58;17.30;99.90
4964;DHT22;2497;47.410;9.740;2022-08-19T00:49:29;17.40;99.90
4964;DHT22;2497;47.410;9.740;2022-08-19T00:52:02;17.30;99.90
4964;DHT22;2497;47.410;9.740;2022-08-19T00:54:32;17.30;99.90
4964;DHT22;2497;47.410;9.740;2022-08-19T00:56:59;17.20;99.90
4964;DHT22;2497;47.410;9.740;2022-08-19T00:59:29;17.20;99.90
4964;DHT22;2497;47.410;9.740;2022-08-19T01:01:56;17.30;99.90
4964;DHT22;2497;47.410;9.740;2022-08-19T01:04:24;17.30;99.90
4964;DHT22;2497;47.410;9.740;2022-08-19T01:06:51;17.30;99.90
4964;DHT22;2497;47.410;9.740;2022-08-19T01:09:19;17.30;99.90
4964;DHT22;2497;47.410;9.740;2022-08-19T01:11:48;17.30;99.90
4964;DHT22;2497;47.410;9.740;2022-08-19T01:14:16;17.30;99.90
4964;DHT22;2497;47.410;9.740;2022-08-19T01:16:45;17.40;99.90
4964;DHT22;2497;47.410;9.740;2022-08-19T01:19:17;17.40;99.90
4964;DHT22;2497;47.410;9.740;2022-08-19T01:21:51;17.40;99.90
4964;DHT22;2497;47.410;9.740;2022-08-19T01:24:21;17.40;99.90
4964;DHT22;2497;47.410;9.740;2022-08-19T01:26:49;17.50;99.90
4964;DHT22;2497;47.410;9.740;2022-08-19T01:29:16;17.50;99.90
4964;DHT22;2497;47.410;9.740;2022-08-19T01:31:44;17.50;99.90
4964;DHT22;2497;47.410;9.740;2022-08-19T01:34:11;17.50;99.90
4964;DHT22;2497;47.410;9.740;2022-08-19T01:36:42;17.60;99.90
4964;DHT22;2497;47.410;9.740;2022-08-19T01:39:12;17.50;99.90
4964;DHT22;2497;47.410;9.740;2022-08-19T01:41:41;17.50;99.90
4964;DHT22;2497;47.410;9.740;2022-08-19T01:44:10;17.50;99.90
4964;DHT22;2497;47.410;9.740;2022-08-19T01:46:37;17.50;99.90
4964;DHT22;2497;47.410;9.740;2022-08-19T01:49:06;17.50;99.90
4964;DHT22;2497;47.410;9.740;2022-08-19T01:51:34;17.50;99.90
4964;DHT22;2497;47.410;9.740;2022-08-19T01:54:02;17.50;99.90
4964;DHT22;2497;47.410;9.740;2022-08-19T01:56:30;17.50;99.90
4964;DHT22;2497;47.410;9.740;2022-08-19T01:59:01;17.60;99.90
4964;DHT22;2497;47.410;9.740;2022-08-19T02:01:29;17.60;99.90
4964;DHT22;2497;47.410;9.740;2022-08-19T02:03:57;17.60;99.90
4964;DHT22;2497;47.410;9.740;2022-08-19T02:06:26;17.50;99.90
4964;DHT22;2497;47.410;9.740;2022-08-19T02:08:54;17.50;99.90
4964;DHT22;2497;47.410;9.740;2022-08-19T02:11:24;17.50;99.90
4964;DHT22;2497;47.410;9.740;2022-08-19T02:13:52;17.50;99.90
4964;DHT22;2497;47.410;9.740;2022-08-19T02:16:22;17.60;99.90
4964;DHT22;2497;47.410;9.740;2022-08-19T02:18:50;17.70;99.90
4964;DHT22;2497;47.410;9.740;2022-08-19T02:21:19;17.70;99.90
4964;DHT22;2497;47.410;9.740;2022-08-19T02:23:46;17.70;99.90
4964;DHT22;2497;47.410;9.740;2022-08-19T02:26:14;17.60;99.90
4964;DHT22;2497;47.410;9.740;2022-08-19T02:28:42;17.60;99.90
4964;DHT22;2497;47.410;9.740;2022-08-19T02:31:10;17.50;99.90
4964;DHT22;2497;47.410;9.740;2022-08-19T02:33:39;17.40;99.90
4964;DHT22;2497;47.410;9.740;2022-08-19T02:36:09;17.50;99.90
4964;DHT22;2497;47.410;9.740;2022-08-19T02:38:37;17.50;99.90
4964;DHT22;2497;47.410;9.740;2022-08-19T02:41:06;17.40;99.90
4964;DHT22;2497;47.410;9.740;2022-08-19T02:43:35;17.30;99.90
4964;DHT22;2497;47.410;9.740;2022-08-19T02:46:12;17.40;99.90
4964;DHT22;2497;47.410;9.740;2022-08-19T02:48:41;17.50;99.90
4964;DHT22;2497;47.410;9.740;2022-08-19T02:51:09;17.40;99.90
4964;DHT22;2497;47.410;9.740;2022-08-19T02:53:43;17.40;99.90
4964;DHT22;2497;47.410;9.740;2022-08-19T02:56:10;17.40;99.90
4964;DHT22;2497;47.410;9.740;2022-08-19T02:58:38;17.30;99.90
4964;DHT22;2497;47.410;9.740;2022-08-19T03:01:05;17.40;99.90
4964;DHT22;2497;47.410;9.740;2022-08-19T03:03:33;17.40;99.90
4964;DHT22;2497;47.410;9.740;2022-08-19T03:06:06;17.40;99.90
4964;DHT22;2497;47.410;9.740;2022-08-19T03:08:34;17.40;99.90
4964;DHT22;2497;47.410;9.740;2022-08-19T03:11:03;17.40;99.90
4964;DHT22;2497;47.410;9.740;2022-08-19T03:13:31;17.40;99.90
4964;DHT22;2497;47.410;9.740;2022-08-19T03:15:59;17.40;99.90
4964;DHT22;2497;47.410;9.740;2022-08-19T03:18:26;17.40;99.90
4964;DHT22;2497;47.410;9.740;2022-08-19T03:20:53;17.40;99.90
4964;DHT22;2497;47.410;9.740;2022-08-19T03:23:23;17.40;99.90
4964;DHT22;2497;47.410;9.740;2022-08-19T03:25:52;17.40;99.90
4964;DHT22;2497;47.410;9.740;2022-08-19T03:28:20;17.40;99.90
4964;DHT22;2497;47.410;9.740;2022-08-19T03:30:57;17.30;99.90
4964;DHT22;2497;47.410;9.740;2022-08-19T03:33:26;17.30;99.90
4964;DHT22;2497;47.410;9.740;2022-08-19T03:36:03;17.40;99.90
4964;DHT22;2497;47.410;9.740;2022-08-19T03:38:32;17.40;99.90
4964;DHT22;2497;47.410;9.740;2022-08-19T03:41:03;17.40;99.90
4964;DHT22;2497;47.410;9.740;2022-08-19T03:43:35;17.40;99.90
4964;DHT22;2497;47.410;9.740;2022-08-19T03:46:05;17.50;99.90
4964;DHT22;2497;47.410;9.740;2022-08-19T03:48:33;17.50;99.90
4964;DHT22;2497;47.410;9.740;2022-08-19T03:51:00;17.50;99.90
4964;DHT22;2497;47.410;9.740;2022-08-19T03:53:29;17.40;99.90
4964;DHT22;2497;47.410;9.740;2022-08-19T03:55:59;17.30;99.90
4964;DHT22;2497;47.410;9.740;2022-08-19T03:58:27;17.30;99.90
4964;DHT22;2497;47.410;9.740;2022-08-19T04:00:55;17.30;99.90
4964;DHT22;2497;47.410;9.740;2022-08-19T04:03:23;17.20;99.90
4964;DHT22;2497;47.410;9.740;2022-08-19T04:05:50;17.20;99.90
4964;DHT22;2497;47.410;9.740;2022-08-19T04:08:17;17.30;99.90
4964;DHT22;2497;47.410;9.740;2022-08-19T04:10:46;17.20;99.90
4964;DHT22;2497;47.410;9.740;2022-08-19T04:13:15;17.30;99.90
4964;DHT22;2497;47.410;9.740;2022-08-19T04:15:44;17.30;99.90
4964;DHT22;2497;47.410;9.740;2022-08-19T04:18:12;17.30;99.90
4964;DHT22;2497;47.410;9.740;2022-08-19T04:20:42;17.30;99.90
4964;DHT22;2497;47.410;9.740;2022-08-19T04:23:10;17.30;99.90
4964;DHT22;2497;47.410;9.740;2022-08-19T04:25:39;17.20;99.90
4964;DHT22;2497;47.410;9.740;2022-08-19T04:28:07;17.30;99.90
4964;DHT22;2497;47.410;9.740;2022-08-19T04:30:41;17.30;99.90
4964;DHT22;2497;47.410;9.740;2022-08-19T04:33:09;17.30;99.90
4964;DHT22;2497;47.410;9.740;2022-08-19T04:35:38;17.30;99.90
4964;DHT22;2497;47.410;9.740;2022-08-19T04:38:06;17.30;99.90
4964;DHT22;2497;47.410;9.740;2022-08-19T04:40:34;17.20;99.90
4964;DHT22;2497;47.410;9.740;2022-08-19T04:43:23;17.30;99.90
4964;DHT22;2497;47.410;9.740;2022-08-19T04:45:53;17.30;99.90
4964;DHT22;2497;47.410;9.740;2022-08-19T04:48:20;17.20;99.90
4964;DHT22;2497;47.410;9.740;2022-08-19T04:50:51;17.20;99.90
4964;DHT22;2497;47.410;9.740;2022-08-19T04:53:23;17.20;99.90
4964;DHT22;2497;47.410;9.740;2022-08-19T04:55:54;17.20;99.90
4964;DHT22;2497;47.410;9.740;2022-08-19T04:58:22;17.10;99.90
4964;DHT22;2497;47.410;9.740;2022-08-19T05:00:52;17.20;99.90
4964;DHT22;2497;47.410;9.740;2022-08-19T05:03:23;17.20;99.90
4964;DHT22;2497;47.410;9.740;2022-08-19T05:05:51;17.20;99.90
4964;DHT22;2497;47.410;9.740;2022-08-19T05:08:20;17.10;99.90
4964;DHT22;2497;47.410;9.740;2022-08-19T05:10:50;17.10;99.90
4964;DHT22;2497;47.410;9.740;2022-08-19T05:13:19;17.10;99.90
4964;DHT22;2497;47.410;9.740;2022-08-19T05:15:55;17.10;99.90
4964;DHT22;2497;47.410;9.740;2022-08-19T05:18:23;17.10;99.90
4964;DHT22;2497;47.410;9.740;2022-08-19T05:21:09;17.10;99.90
4964;DHT22;2497;47.410;9.740;2022-08-19T05:23:54;17.20;99.90
4964;DHT22;2497;47.410;9.740;2022-08-19T05:26:21;17.20;99.90
4964;DHT22;2497;47.410;9.740;2022-08-19T05:28:49;17.20;99.90
4964;DHT22;2497;47.410;9.740;2022-08-19T05:31:18;17.20;99.90
4964;DHT22;2497;47.410;9.740;2022-08-19T05:33:46;17.10;99.90
4964;DHT22;2497;47.410;9.740;2022-08-19T05:36:13;17.10;99.90
4964;DHT22;2497;47.410;9.740;2022-08-19T05:38:41;17.10;99.90
4964;DHT22;2497;47.410;9.740;2022-08-19T05:41:09;17.00;99.90
4964;DHT22;2497;47.410;9.740;2022-08-19T05:43:36;17.10;99.90
4964;DHT22;2497;47.410;9.740;2022-08-19T05:46:04;17.10;99.90
4964;DHT22;2497;47.410;9.740;2022-08-19T05:48:33;17.20;99.90
4964;DHT22;2497;47.410;9.740;2022-08-19T05:51:04;17.20;99.90
4964;DHT22;2497;47.410;9.740;2022-08-19T05:53:32;17.20;99.90
4964;DHT22;2497;47.410;9.740;2022-08-19T05:56:03;17.30;99.90
4964;DHT22;2497;47.410;9.740;2022-08-19T05:58:31;17.30;99.90
4964;DHT22;2497;47.410;9.740;2022-08-19T06:00:59;17.30;99.90
4964;DHT22;2497;47.410;9.740;2022-08-19T06:03:30;17.30;99.90
4964;DHT22;2497;47.410;9.740;2022-08-19T06:06:00;17.20;99.90
4964;DHT22;2497;47.410;9.740;2022-08-19T06:08:28;17.20;99.90
4964;DHT22;2497;47.410;9.740;2022-08-19T06:10:56;17.10;99.90
4964;DHT22;2497;47.410;9.740;2022-08-19T06:13:23;17.20;99.90
4964;DHT22;2497;47.410;9.740;2022-08-19T06:15:51;17.30;99.90
4964;DHT22;2497;47.410;9.740;2022-08-19T06:18:18;17.30;99.90
4964;DHT22;2497;47.410;9.740;2022-08-19T06:20:46;17.30;99.90
4964;DHT22;2497;47.410;9.740;2022-08-19T06:23:16;17.30;99.90
4964;DHT22;2497;47.410;9.740;2022-08-19T06:25:44;17.30;99.90
4964;DHT22;2497;47.410;9.740;2022-08-19T06:28:11;17.40;99.90
4964;DHT22;2497;47.410;9.740;2022-08-19T06:30:38;17.30;99.90
4964;DHT22;2497;47.410;9.740;2022-08-19T06:33:06;17.40;99.90
4964;DHT22;2497;47.410;9.740;2022-08-19T06:35:38;17.30;99.90
4964;DHT22;2497;47.410;9.740;2022-08-19T06:38:05;17.30;99.90
4964;DHT22;2497;47.410;9.740;2022-08-19T06:40:36;17.10;99.90
4964;DHT22;2497;47.410;9.740;2022-08-19T06:43:04;17.10;99.90
4964;DHT22;2497;47.410;9.740;2022-08-19T06:45:32;17.10;99.90
4964;DHT22;2497;47.410;9.740;2022-08-19T06:48:00;17.10;99.90
4964;DHT22;2497;47.410;9.740;2022-08-19T06:50:27;17.10;99.90
4964;DHT22;2497;47.410;9.740;2022-08-19T06:52:55;17.20;99.90
4964;DHT22;2497;47.410;9.740;2022-08-19T06:55:22;17.20;99.90
4964;DHT22;2497;47.410;9.740;2022-08-19T06:57:51;17.20;99.90
4964;DHT22;2497;47.410;9.740;2022-08-19T07:00:18;17.20;99.90
4964;DHT22;2497;47.410;9.740;2022-08-19T07:02:46;17.20;99.90
4964;DHT22;2497;47.410;9.740;2022-08-19T07:05:13;17.20;99.90
4964;DHT22;2497;47.410;9.740;2022-08-19T07:07:40;17.20;99.90
4964;DHT22;2497;47.410;9.740;2022-08-19T07:10:09;17.20;99.90
4964;DHT22;2497;47.410;9.740;2022-08-19T07:12:36;17.20;99.90
4964;DHT22;2497;47.410;9.740;2022-08-19T07:15:06;17.20;99.90
4964;DHT22;2497;47.410;9.740;2022-08-19T07:17:35;17.10;99.90
4964;DHT22;2497;47.410;9.740;2022-08-19T07:20:05;17.10;99.90
4964;DHT22;2497;47.410;9.740;2022-08-19T07:22:33;17.00;99.90
4964;DHT22;2497;47.410;9.740;2022-08-19T07:25:00;17.00;99.90
4964;DHT22;2497;47.410;9.740;2022-08-19T07:27:28;17.00;99.90
4964;DHT22;2497;47.410;9.740;2022-08-19T07:29:55;16.90;99.90
4964;DHT22;2497;47.410;9.740;2022-08-19T07:32:25;16.90;99.90
4964;DHT22;2497;47.410;9.740;2022-08-19T07:34:52;16.90;99.90
4964;DHT22;2497;47.410;9.740;2022-08-19T07:37:20;16.80;99.90
4964;DHT22;2497;47.410;9.740;2022-08-19T07:39:47;16.90;99.90
4964;DHT22;2497;47.410;9.740;2022-08-19T07:42:14;17.00;99.90
4964;DHT22;2497;47.410;9.740;2022-08-19T07:44:43;17.00;99.90
4964;DHT22;2497;47.410;9.740;2022-08-19T07:47:10;17.00;99.90
4964;DHT22;2497;47.410;9.740;2022-08-19T07:49:40;16.90;99.90
4964;DHT22;2497;47.410;9.740;2022-08-19T07:52:09;16.80;99.90
4964;DHT22;2497;47.410;9.740;2022-08-19T07:54:38;16.80;99.90
4964;DHT22;2497;47.410;9.740;2022-08-19T07:57:07;16.80;99.90
4964;DHT22;2497;47.410;9.740;2022-08-19T07:59:35;16.90;99.90
4964;DHT22;2497;47.410;9.740;2022-08-19T08:02:02;16.80;99.90
4964;DHT22;2497;47.410;9.740;2022-08-19T08:04:31;16.80;99.90
4964;DHT22;2497;47.410;9.740;2022-08-19T08:07:17;16.80;99.90
4964;DHT22;2497;47.410;9.740;2022-08-19T08:10:03;16.80;99.90
4964;DHT22;2497;47.410;9.740;2022-08-19T08:12:33;16.90;99.90
4964;DHT22;2497;47.410;9.740;2022-08-19T08:15:04;16.90;99.90
4964;DHT22;2497;47.410;9.740;2022-08-19T08:17:34;16.90;99.90
4964;DHT22;2497;47.410;9.740;2022-08-19T08:20:03;17.00;99.90
4964;DHT22;2497;47.410;9.740;2022-08-19T08:22:33;17.10;99.90
4964;DHT22;2497;47.410;9.740;2022-08-19T08:25:20;17.00;99.90
4964;DHT22;2497;47.410;9.740;2022-08-19T08:27:49;17.00;99.90
4964;DHT22;2497;47.410;9.740;2022-08-19T08:30:19;17.00;99.90
4964;DHT22;2497;47.410;9.740;2022-08-19T08:32:48;17.10;99.90
4964;DHT22;2497;47.410;9.740;2022-08-19T08:35:17;17.00;99.90
4964;DHT22;2497;47.410;9.740;2022-08-19T08:37:48;17.00;99.90
4964;DHT22;2497;47.410;9.740;2022-08-19T08:40:20;17.10;99.90
4964;DHT22;2497;47.410;9.740;2022-08-19T08:42:54;17.10;99.90
4964;DHT22;2497;47.410;9.740;2022-08-19T08:45:24;17.10;99.90
4964;DHT22;2497;47.410;9.740;2022-08-19T08:47:54;17.10;99.90
4964;DHT22;2497;47.410;9.740;2022-08-19T08:50:29;17.10;99.90
4964;DHT22;2497;47.410;9.740;2022-08-19T08:52:59;17.10;99.90
4964;DHT22;2497;47.410;9.740;2022-08-19T08:55:28;17.10;99.90
4964;DHT22;2497;47.410;9.740;2022-08-19T08:58:00;17.10;99.90
4964;DHT22;2497;47.410;9.740;2022-08-19T09:00:31;17.20;99.90
4964;DHT22;2497;47.410;9.740;2022-08-19T09:03:00;17.10;99.90
4964;DHT22;2497;47.410;9.740;2022-08-19T09:05:41;17.20;99.90
4964;DHT22;2497;47.410;9.740;2022-08-19T09:08:17;17.20;99.90
4964;DHT22;2497;47.410;9.740;2022-08-19T09:10:49;17.10;99.90
4964;DHT22;2497;47.410;9.740;2022-08-19T09:13:24;17.10;99.90
4964;DHT22;2497;47.410;9.740;2022-08-19T09:16:00;17.00;99.90
4964;DHT22;2497;47.410;9.740;2022-08-19T09:18:40;17.00;99.90
4964;DHT22;2497;47.410;9.740;2022-08-19T09:21:07;17.10;99.90
4964;DHT22;2497;47.410;9.740;2022-08-19T09:23:37;17.00;99.90
4964;DHT22;2497;47.410;9.740;2022-08-19T09:26:08;17.10;99.90
4964;DHT22;2497;47.410;9.740;2022-08-19T09:28:39;17.10;99.90
4964;DHT22;2497;47.410;9.740;2022-08-19T09:31:10;17.00;99.90
4964;DHT22;2497;47.410;9.740;2022-08-19T09:33:37;17.10;99.90
4964;DHT22;2497;47.410;9.740;2022-08-19T09:36:07;17.20;99.90
4964;DHT22;2497;47.410;9.740;2022-08-19T09:38:37;17.20;99.90
4964;DHT22;2497;47.410;9.740;2022-08-19T09:41:07;17.20;99.90
4964;DHT22;2497;47.410;9.740;2022-08-19T09:43:38;17.20;99.90
4964;DHT22;2497;47.410;9.740;2022-08-19T09:46:08;17.10;99.90
4964;DHT22;2497;47.410;9.740;2022-08-19T09:48:36;17.10;99.90
4964;DHT22;2497;47.410;9.740;2022-08-19T09:51:05;17.10;99.90
4964;DHT22;2497;47.410;9.740;2022-08-19T09:53:33;17.10;99.90
4964;DHT22;2497;47.410;9.740;2022-08-19T09:56:04;17.20;99.90
4964;DHT22;2497;47.410;9.740;2022-08-19T09:58:32;17.20;99.90
4964;DHT22;2497;47.410;9.740;2022-08-19T10:01:01;17.20;99.90
4964;DHT22;2497;47.410;9.740;2022-08-19T10:03:31;17.20;99.90
4964;DHT22;2497;47.410;9.740;2022-08-19T10:06:00;17.20;99.90
4964;DHT22;2497;47.410;9.740;2022-08-19T10:08:31;17.10;99.90
4964;DHT22;2497;47.410;9.740;2022-08-19T10:10:59;17.10;99.90
4964;DHT22;2497;47.410;9.740;2022-08-19T10:13:30;17.20;99.90
4964;DHT22;2497;47.410;9.740;2022-08-19T10:16:05;17.30;99.90
4964;DHT22;2497;47.410;9.740;2022-08-19T10:18:33;17.30;99.90
4964;DHT22;2497;47.410;9.740;2022-08-19T10:21:06;17.40;99.90
4964;DHT22;2497;47.410;9.740;2022-08-19T10:23:36;17.40;99.90
4964;DHT22;2497;47.410;9.740;2022-08-19T10:26:04;17.50;99.90
4964;DHT22;2497;47.410;9.740;2022-08-19T10:28:35;17.50;99.90
4964;DHT22;2497;47.410;9.740;2022-08-19T10:31:05;17.50;99.90
4964;DHT22;2497;47.410;9.740;2022-08-19T10:33:33;17.40;99.90
4964;DHT22;2497;47.410;9.740;2022-08-19T10:36:01;17.40;99.90
4964;DHT22;2497;47.410;9.740;2022-08-19T10:38:30;17.40;99.90
4964;DHT22;2497;47.410;9.740;2022-08-19T10:40:57;17.40;99.90
4964;DHT22;2497;47.410;9.740;2022-08-19T10:43:24;17.40;99.90
4964;DHT22;2497;47.410;9.740;2022-08-19T10:45:54;17.30;99.90
4964;DHT22;2497;47.410;9.740;2022-08-19T10:48:25;17.30;99.90
4964;DHT22;2497;47.410;9.740;2022-08-19T10:50:52;17.30;99.90
4964;DHT22;2497;47.410;9.740;2022-08-19T10:53:36;17.30;99.90
4964;DHT22;2497;47.410;9.740;2022-08-19T10:56:04;17.30;99.90
4964;DHT22;2497;47.410;9.740;2022-08-19T10:58:49;17.30;99.90
4964;DHT22;2497;47.410;9.740;2022-08-19T11:01:18;17.30;99.90
4964;DHT22;2497;47.410;9.740;2022-08-19T11:03:45;17.20;99.90
4964;DHT22;2497;47.410;9.740;2022-08-19T11:06:13;17.10;99.90
4964;DHT22;2497;47.410;9.740;2022-08-19T11:08:41;17.00;99.90
4964;DHT22;2497;47.410;9.740;2022-08-19T11:11:11;16.90;99.90
4964;DHT22;2497;47.410;9.740;2022-08-19T11:13:41;16.90;99.90
4964;DHT22;2497;47.410;9.740;2022-08-19T11:16:11;16.90;99.90
4964;DHT22;2497;47.410;9.740;2022-08-19T11:18:43;16.80;99.90
4964;DHT22;2497;47.410;9.740;2022-08-19T11:21:14;16.80;99.90
4964;DHT22;2497;47.410;9.740;2022-08-19T11:23:43;16.80;99.90
4964;DHT22;2497;47.410;9.740;2022-08-19T11:26:11;16.70;99.90
4964;DHT22;2497;47.410;9.740;2022-08-19T11:28:38;16.70;99.90
4964;DHT22;2497;47.410;9.740;2022-08-19T11:31:10;16.70;99.90
4964;DHT22;2497;47.410;9.740;2022-08-19T11:33:39;16.80;99.90
4964;DHT22;2497;47.410;9.740;2022-08-19T11:36:08;16.80;99.90
4964;DHT22;2497;47.410;9.740;2022-08-19T11:38:36;16.70;99.90
4964;DHT22;2497;47.410;9.740;2022-08-19T11:41:05;16.70;99.90
4964;DHT22;2497;47.410;9.740;2022-08-19T11:43:34;16.60;99.90
4964;DHT22;2497;47.410;9.740;2022-08-19T11:46:05;16.60;99.90
4964;DHT22;2497;47.410;9.740;2022-08-19T11:48:33;16.60;99.90
4964;DHT22;2497;47.410;9.740;2022-08-19T11:51:06;16.60;99.90
4964;DHT22;2497;47.410;9.740;2022-08-19T11:53:35;16.70;99.90
4964;DHT22;2497;47.410;9.740;2022-08-19T11:56:04;16.70;99.90
4964;DHT22;2497;47.410;9.740;2022-08-19T11:58:32;16.70;99.90
4964;DHT22;2497;47.410;9.740;2022-08-19T12:01:00;16.60;99.90
4964;DHT22;2497;47.410;9.740;2022-08-19T12:03:27;16.70;99.90
4964;DHT22;2497;47.410;9.740;2022-08-19T12:05:55;16.60;99.90
4964;DHT22;2497;47.410;9.740;2022-08-19T12:08:24;16.50;99.90
4964;DHT22;2497;47.410;9.740;2022-08-19T12:10:52;16.50;99.90
4964;DHT22;2497;47.410;9.740;2022-08-19T12:13:19;16.40;99.90
4964;DHT22;2497;47.410;9.740;2022-08-19T12:15:48;16.40;99.90
4964;DHT22;2497;47.410;9.740;2022-08-19T12:18:15;16.40;99.90
4964;DHT22;2497;47.410;9.740;2022-08-19T12:20:43;16.40;99.90
4964;DHT22;2497;47.410;9.740;2022-08-19T12:23:11;16.40;99.90
4964;DHT22;2497;47.410;9.740;2022-08-19T12:25:47;16.50;99.90
4964;DHT22;2497;47.410;9.740;2022-08-19T12:28:17;16.40;99.90
4964;DHT22;2497;47.410;9.740;2022-08-19T12:30:45;16.50;99.90
4964;DHT22;2497;47.410;9.740;2022-08-19T12:33:13;16.50;99.90
4964;DHT22;2497;47.410;9.740;2022-08-19T12:35:41;16.50;99.90
4964;DHT22;2497;47.410;9.740;2022-08-19T12:38:09;16.50;99.90
4964;DHT22;2497;47.410;9.740;2022-08-19T12:40:37;16.50;99.90
4964;DHT22;2497;47.410;9.740;2022-08-19T12:43:08;16.60;99.90
4964;DHT22;2497;47.410;9.740;2022-08-19T12:45:37;16.60;99.90
4964;DHT22;2497;47.410;9.740;2022-08-19T12:48:07;16.70;99.90
4964;DHT22;2497;47.410;9.740;2022-08-19T12:50:35;16.70;99.90
4964;DHT22;2497;47.410;9.740;2022-08-19T12:53:03;16.70;99.90
4964;DHT22;2497;47.410;9.740;2022-08-19T12:55:30;16.70;99.90
4964;DHT22;2497;47.410;9.740;2022-08-19T12:58:00;16.70;99.90
4964;DHT22;2497;47.410;9.740;2022-08-19T13:00:30;16.70;99.90
4964;DHT22;2497;47.410;9.740;2022-08-19T13:02:59;16.60;99.90
4964;DHT22;2497;47.410;9.740;2022-08-19T13:05:28;16.60;99.90
4964;DHT22;2497;47.410;9.740;2022-08-19T13:07:57;16.50;99.90
4964;DHT22;2497;47.410;9.740;2022-08-19T13:10:28;16.60;99.90
4964;DHT22;2497;47.410;9.740;2022-08-19T13:13:00;16.60;99.90
4964;DHT22;2497;47.410;9.740;2022-08-19T13:15:34;16.50;99.90
4964;DHT22;2497;47.410;9.740;2022-08-19T13:18:02;16.60;99.90
4964;DHT22;2497;47.410;9.740;2022-08-19T13:20:30;16.60;99.90
4964;DHT22;2497;47.410;9.740;2022-08-19T13:22:58;16.50;99.90
4964;DHT22;2497;47.410;9.740;2022-08-19T13:25:25;16.50;99.90
4964;DHT22;2497;47.410;9.740;2022-08-19T13:27:53;16.50;99.90
4964;DHT22;2497;47.410;9.740;2022-08-19T13:30:21;16.60;99.90
4964;DHT22;2497;47.410;9.740;2022-08-19T13:33:08;16.50;99.90
4964;DHT22;2497;47.410;9.740;2022-08-19T13:35:41;16.50;99.90
4964;DHT22;2497;47.410;9.740;2022-08-19T13:38:09;16.50;99.90
4964;DHT22;2497;47.410;9.740;2022-08-19T13:40:36;16.50;99.90
4964;DHT22;2497;47.410;9.740;2022-08-19T13:43:16;16.60;99.90
4964;DHT22;2497;47.410;9.740;2022-08-19T13:45:46;16.60;99.90
4964;DHT22;2497;47.410;9.740;2022-08-19T13:48:16;16.60;99.90
4964;DHT22;2497;47.410;9.740;2022-08-19T13:50:45;16.60;99.90
4964;DHT22;2497;47.410;9.740;2022-08-19T13:53:13;16.50;99.90
4964;DHT22;2497;47.410;9.740;2022-08-19T13:55:42;16.50;99.90
4964;DHT22;2497;47.410;9.740;2022-08-19T13:58:11;16.50;99.90
4964;DHT22;2497;47.410;9.740;2022-08-19T14:00:42;16.50;99.90
4964;DHT22;2497;47.410;9.740;2022-08-19T14:03:10;16.40;99.90
4964;DHT22;2497;47.410;9.740;2022-08-19T14:05:40;16.40;99.90
4964;DHT22;2497;47.410;9.740;2022-08-19T14:08:08;16.40;99.90
4964;DHT22;2497;47.410;9.740;2022-08-19T14:10:35;16.40;99.90
4964;DHT22;2497;47.410;9.740;2022-08-19T14:13:03;16.40;99.90
4964;DHT22;2497;47.410;9.740;2022-08-19T14:15:31;16.40;99.90
4964;DHT22;2497;47.410;9.740;2022-08-19T14:17:59;16.50;99.90
4964;DHT22;2497;47.410;9.740;2022-08-19T14:20:27;16.50;99.90
4964;DHT22;2497;47.410;9.740;2022-08-19T14:22:56;16.50;99.90
4964;DHT22;2497;47.410;9.740;2022-08-19T14:25:27;16.50;99.90
4964;DHT22;2497;47.410;9.740;2022-08-19T14:27:56;16.50;99.90
4964;DHT22;2497;47.410;9.740;2022-08-19T14:30:29;16.50;99.90
4964;DHT22;2497;47.410;9.740;2022-08-19T14:32:59;16.50;99.90
4964;DHT22;2497;47.410;9.740;2022-08-19T14:35:29;16.50;99.90
4964;DHT22;2497;47.410;9.740;2022-08-19T14:37:59;16.50;99.90
4964;DHT22;2497;47.410;9.740;2022-08-19T14:40:28;16.50;99.90
4964;DHT22;2497;47.410;9.740;2022-08-19T14:42:59;16.60;99.90
4964;DHT22;2497;47.410;9.740;2022-08-19T14:45:30;16.60;99.90
4964;DHT22;2497;47.410;9.740;2022-08-19T14:47:58;16.60;99.90
4964;DHT22;2497;47.410;9.740;2022-08-19T14:50:26;16.60;99.90
4964;DHT22;2497;47.410;9.740;2022-08-19T14:53:04;16.60;99.90
4964;DHT22;2497;47.410;9.740;2022-08-19T14:55:35;16.60;99.90
4964;DHT22;2497;47.410;9.740;2022-08-19T14:58:02;16.60;99.90
4964;DHT22;2497;47.410;9.740;2022-08-19T15:00:29;16.60;99.90
4964;DHT22;2497;47.410;9.740;2022-08-19T15:02:57;16.70;99.90
4964;DHT22;2497;47.410;9.740;2022-08-19T15:05:24;16.70;99.90
4964;DHT22;2497;47.410;9.740;2022-08-19T15:07:52;16.70;99.90
4964;DHT22;2497;47.410;9.740;2022-08-19T15:10:24;16.60;99.90
4964;DHT22;2497;47.410;9.740;2022-08-19T15:12:51;16.60;99.90
4964;DHT22;2497;47.410;9.740;2022-08-19T15:15:20;16.60;99.90
4964;DHT22;2497;47.410;9.740;2022-08-19T15:17:48;16.60;99.90
4964;DHT22;2497;47.410;9.740;2022-08-19T15:20:19;16.60;99.90
4964;DHT22;2497;47.410;9.740;2022-08-19T15:22:48;16.60;99.90
4964;DHT22;2497;47.410;9.740;2022-08-19T15:25:17;16.60;99.90
4964;DHT22;2497;47.410;9.740;2022-08-19T15:27:47;16.60;99.90
4964;DHT22;2497;47.410;9.740;2022-08-19T15:30:21;16.70;99.90
4964;DHT22;2497;47.410;9.740;2022-08-19T15:32:50;16.60;99.90
4964;DHT22;2497;47.410;9.740;2022-08-19T15:35:18;16.60;99.90
4964;DHT22;2497;47.410;9.740;2022-08-19T15:37:54;16.60;99.90
4964;DHT22;2497;47.410;9.740;2022-08-19T15:40:31;16.60;99.90
4964;DHT22;2497;47.410;9.740;2022-08-19T15:43:03;16.60;99.90
4964;DHT22;2497;47.410;9.740;2022-08-19T15:45:34;16.60;99.90
4964;DHT22;2497;47.410;9.740;2022-08-19T15:48:09;16.70;99.90
4964;DHT22;2497;47.410;9.740;2022-08-19T15:50:50;16.60;99.90
4964;DHT22;2497;47.410;9.740;2022-08-19T15:53:18;16.70;99.90
4964;DHT22;2497;47.410;9.740;2022-08-19T15:55:46;16.70;99.90
4964;DHT22;2497;47.410;9.740;2022-08-19T15:58:15;16.60;99.90
4964;DHT22;2497;47.410;9.740;2022-08-19T16:01:03;16.70;99.90
4964;DHT22;2497;47.410;9.740;2022-08-19T16:03:47;16.70;99.90
4964;DHT22;2497;47.410;9.740;2022-08-19T16:06:35;16.70;99.90
4964;DHT22;2497;47.410;9.740;2022-08-19T16:09:03;16.70;99.90
4964;DHT22;2497;47.410;9.740;2022-08-19T16:11:32;16.80;99.90
4964;DHT22;2497;47.410;9.740;2022-08-19T16:14:01;16.70;99.90
4964;DHT22;2497;47.410;9.740;2022-08-19T16:16:32;16.70;99.90